Time;durP1;ratioP1;P1;durP2;ratioP2;P2;SDS_P1;SDS_P2;PMS_P1;PMS_P2;Temp;Humidity;BMP_temperature;BMP_pressure;BME280_temperature;BME280_humidity;BME280_pressure;Samples;Min_cycle;Max_cycle;Signal;HPM_P1;HPM_P2
2024/01/20 00:00:49;;;;;;;0.60;0.60;;;-3.40;99.90;;;;;;4977570;28;20223;-83
2024/01/20 00:03:17;;;;;;;4.90;2.05;;;-3.40;99.90;;;;;;4982590;28;20211;-83
2024/01/20 00:05:44;;;;;;;1.73;1.63;;;-3.40;99.90;;;;;;4975663;28;20254;-82
2024/01/20 00:08:12;;;;;;;0.50;0.50;;;-3.40;99.90;;;;;;4981273;28;20223;-82
2024/01/20 00:10:39;;;;;;;2.08;1.98;;;-3.50;99.90;;;;;;4956620;28;20210;-85
2024/01/20 00:13:07;;;;;;;0.50;0.50;;;-3.40;99.90;;;;;;4978419;28;20219;-83
2024/01/20 00:15:36;;;;;;;1.25;1.25;;;-3.50;99.90;;;;;;4968752;28;20403;-83
2024/01/20 00:18:03;;;;;;;4.03;3.53;;;-3.70;99.90;;;;;;4980873;28;20389;-82
2024/01/20 00:20:31;;;;;;;3.85;3.65;;;-3.80;99.90;;;;;;4975996;28;20274;-83
2024/01/20 00:22:58;;;;;;;1.13;1.13;;;-3.80;99.90;;;;;;4984549;28;20426;-85
2024/01/20 00:25:28;;;;;;;2.47;1.30;;;-3.90;99.90;;;;;;4976249;28;20254;-83
2024/01/20 00:27:55;;;;;;;3.95;3.72;;;-4.00;99.90;;;;;;4984378;28;20238;-84
2024/01/20 00:30:22;;;;;;;0.60;0.60;;;-4.00;99.90;;;;;;4935091;29;20214;-84
2024/01/20 00:32:49;;;;;;;3.40;1.88;;;-4.00;99.90;;;;;;4984105;28;20203;-84
2024/01/20 00:35:16;;;;;;;2.47;2.33;;;-4.10;99.90;;;;;;4973271;28;20203;-83
2024/01/20 00:37:45;;;;;;;2.80;2.58;;;-4.00;99.90;;;;;;4977949;28;20203;-83
2024/01/20 00:40:12;;;;;;;3.00;2.80;;;-4.20;99.90;;;;;;4974229;28;20214;-83
2024/01/20 00:42:39;;;;;;;0.50;0.50;;;-4.20;99.90;;;;;;4985017;28;20222;-84
2024/01/20 00:45:07;;;;;;;3.05;1.73;;;-4.20;99.90;;;;;;4969603;28;20227;-82
2024/01/20 00:47:36;;;;;;;1.48;1.42;;;-4.20;99.90;;;;;;4976554;28;20204;-83
2024/01/20 00:50:06;;;;;;;0.90;0.90;;;-4.30;99.90;;;;;;4976687;28;20212;-84
2024/01/20 00:52:32;;;;;;;2.58;2.38;;;-4.30;99.90;;;;;;4979990;28;20488;-83
2024/01/20 00:54:59;;;;;;;0.63;0.63;;;-4.30;99.90;;;;;;4981938;28;20448;-83
2024/01/20 00:57:27;;;;;;;1.20;1.20;;;-4.30;99.90;;;;;;4984360;28;20211;-87
2024/01/20 00:59:55;;;;;;;0.50;0.50;;;-4.20;99.90;;;;;;4992664;28;20263;-85
2024/01/20 01:02:25;;;;;;;1.13;1.13;;;-4.30;99.90;;;;;;4974572;28;20275;-85
2024/01/20 01:04:53;;;;;;;3.58;3.38;;;-4.20;99.90;;;;;;4986866;28;20332;-82
2024/01/20 01:07:22;;;;;;;0.63;0.63;;;-4.20;99.90;;;;;;4988562;28;20202;-83
2024/01/20 01:09:50;;;;;;;1.90;1.67;;;-4.30;99.90;;;;;;4989734;28;20203;-84
2024/01/20 01:12:18;;;;;;;0.43;0.43;;;-4.30;99.90;;;;;;4995722;28;20211;-87
2024/01/20 01:14:45;;;;;;;3.92;3.63;;;-4.30;99.90;;;;;;4987685;28;20290;-86
2024/01/20 01:17:13;;;;;;;1.50;1.40;;;-4.30;99.90;;;;;;4979946;28;20207;-84
2024/01/20 01:19:42;;;;;;;1.10;1.10;;;-4.30;99.90;;;;;;4981303;28;20226;-82
2024/01/20 01:22:09;;;;;;;0.90;0.90;;;-4.40;99.90;;;;;;4969208;28;20209;-80
2024/01/20 01:24:43;;;;;;;1.70;1.60;;;-4.40;99.90;;;;;;4992991;28;20238;-81
2024/01/20 01:27:12;;;;;;;5.32;4.35;;;-4.40;99.90;;;;;;4983513;28;20209;-82
2024/01/20 01:29:40;;;;;;;1.70;1.60;;;-4.40;99.90;;;;;;4957001;29;20282;-83
2024/01/20 01:32:08;;;;;;;9.02;4.38;;;-4.40;99.90;;;;;;4976904;28;20207;-82
2024/01/20 01:34:37;;;;;;;1.50;1.50;;;-4.40;99.90;;;;;;4967202;28;20211;-82
2024/01/20 01:37:04;;;;;;;1.48;1.40;;;-4.50;99.90;;;;;;4952773;28;20211;-83
2024/01/20 01:39:32;;;;;;;1.27;1.20;;;-4.40;99.90;;;;;;4972128;28;20274;-82
2024/01/20 01:41:59;;;;;;;1.95;1.85;;;-4.50;99.90;;;;;;4975060;28;20214;-83
2024/01/20 01:44:27;;;;;;;1.40;1.30;;;-4.30;99.90;;;;;;4960985;29;20242;-83
2024/01/20 01:46:57;;;;;;;6.82;3.05;;;-4.30;99.90;;;;;;4976136;28;20211;-82
2024/01/20 01:49:24;;;;;;;14.63;3.47;;;-4.20;99.90;;;;;;4955275;28;20210;-81
2024/01/20 01:51:53;;;;;;;1.60;1.50;;;-4.30;99.90;;;;;;4957269;28;20274;-81
2024/01/20 01:54:22;;;;;;;1.50;1.40;;;-4.20;99.90;;;;;;4972559;28;20207;-84
2024/01/20 01:56:52;;;;;;;0.85;0.85;;;-4.20;99.90;;;;;;4973798;28;20438;-83
2024/01/20 01:59:21;;;;;;;2.90;0.95;;;-4.20;99.90;;;;;;4962859;28;20199;-82
2024/01/20 02:01:49;;;;;;;2.75;1.60;;;-4.10;99.90;;;;;;4982667;28;20262;-87
2024/01/20 02:04:16;;;;;;;1.52;1.42;;;-4.10;99.90;;;;;;4984434;28;20230;-81
2024/01/20 02:06:45;;;;;;;2.22;1.35;;;-4.10;99.90;;;;;;4979047;28;20202;-81
2024/01/20 02:09:13;;;;;;;2.28;2.15;;;-4.10;99.90;;;;;;4971883;28;20496;-83
2024/01/20 02:11:41;;;;;;;3.30;1.65;;;-4.20;99.90;;;;;;4976702;28;20202;-83
2024/01/20 02:14:09;;;;;;;1.75;1.35;;;-4.30;99.90;;;;;;4974217;28;20460;-82
2024/01/20 02:16:36;;;;;;;0.80;0.80;;;-4.30;99.90;;;;;;4983732;28;20207;-81
2024/01/20 02:19:04;;;;;;;1.35;1.33;;;-4.50;99.90;;;;;;4970198;28;20204;-85
2024/01/20 02:21:34;;;;;;;1.02;1.02;;;-4.60;99.90;;;;;;4987913;28;20205;-85
2024/01/20 02:24:04;;;;;;;2.83;2.60;;;-4.50;99.90;;;;;;4989636;28;20230;-84
2024/01/20 02:26:31;;;;;;;1.75;1.65;;;-4.60;99.90;;;;;;4970450;29;20195;-84
2024/01/20 02:28:59;;;;;;;1.73;1.60;;;-4.60;99.90;;;;;;4990307;28;20261;-86
2024/01/20 02:31:30;;;;;;;1.17;1.17;;;-4.60;99.90;;;;;;4974972;28;20202;-85
2024/01/20 02:34:03;;;;;;;5.38;2.67;;;-4.60;99.90;;;;;;4988094;28;20576;-84
2024/01/20 02:36:33;;;;;;;3.10;2.30;;;-4.70;99.90;;;;;;4984504;28;20214;-85
2024/01/20 02:39:07;;;;;;;3.45;3.15;;;-4.70;99.90;;;;;;4974699;28;20207;-84
2024/01/20 02:41:35;;;;;;;0.75;0.75;;;-4.70;99.90;;;;;;4984870;28;20199;-85
2024/01/20 02:44:08;;;;;;;0.80;0.80;;;-4.70;99.90;;;;;;4983656;28;20294;-84
2024/01/20 02:46:36;;;;;;;3.30;3.00;;;-4.50;99.90;;;;;;4977476;28;20274;-84
2024/01/20 02:49:04;;;;;;;1.65;1.55;;;-4.70;99.90;;;;;;4980677;28;20234;-85
2024/01/20 02:51:31;;;;;;;4.63;1.48;;;-4.80;99.90;;;;;;4960444;29;20210;-85
2024/01/20 02:53:59;;;;;;;1.13;1.05;;;-4.80;99.90;;;;;;4961841;28;20435;-84
2024/01/20 02:56:34;;;;;;;2.28;2.17;;;-4.90;99.90;;;;;;4969446;28;20195;-84
2024/01/20 02:59:01;;;;;;;7.60;2.05;;;-4.70;99.90;;;;;;4971436;28;20548;-86
2024/01/20 03:01:31;;;;;;;2.03;1.92;;;-4.90;99.90;;;;;;4965482;28;20199;-86
2024/01/20 03:03:59;;;;;;;1.08;1.08;;;-5.00;99.90;;;;;;4964482;28;20202;-85
2024/01/20 03:06:27;;;;;;;1.63;1.52;;;-5.00;99.90;;;;;;4964208;28;20203;-84
2024/01/20 03:08:54;;;;;;;1.58;1.38;;;-5.00;99.90;;;;;;4973141;28;20204;-86
2024/01/20 03:11:21;;;;;;;3.63;1.98;;;-5.10;99.90;;;;;;4951958;28;20203;-84
2024/01/20 03:13:49;;;;;;;1.52;1.52;;;-5.00;99.90;;;;;;4982301;28;20203;-84
2024/01/20 03:16:18;;;;;;;2.45;2.25;;;-5.10;99.90;;;;;;4983642;28;20214;-84
2024/01/20 03:18:45;;;;;;;1.98;1.88;;;-5.10;99.90;;;;;;4977219;28;20514;-83
2024/01/20 03:21:17;;;;;;;0.60;0.60;;;-5.00;99.90;;;;;;4968377;28;20238;-84
2024/01/20 03:23:44;;;;;;;1.50;1.40;;;-5.00;99.90;;;;;;4962733;28;20318;-85
2024/01/20 03:26:13;;;;;;;2.70;2.25;;;-5.00;99.90;;;;;;4984505;28;20235;-82
2024/01/20 03:28:43;;;;;;;1.38;1.35;;;-5.00;99.90;;;;;;4977880;28;20569;-83
2024/01/20 03:31:10;;;;;;;1.00;0.95;;;-5.10;99.90;;;;;;4975028;28;20791;-83
2024/01/20 03:33:37;;;;;;;0.85;0.82;;;-5.10;99.90;;;;;;4972786;28;20208;-82
2024/01/20 03:36:04;;;;;;;0.80;0.80;;;-5.20;99.90;;;;;;4984465;28;20309;-83
2024/01/20 03:38:31;;;;;;;2.15;2.05;;;-5.10;99.90;;;;;;4976800;28;20221;-84
2024/01/20 03:40:58;;;;;;;0.88;0.88;;;-5.00;99.90;;;;;;4984113;28;20238;-84
2024/01/20 03:43:26;;;;;;;1.08;1.08;;;-5.10;99.90;;;;;;4984956;28;20247;-81
2024/01/20 03:45:56;;;;;;;0.65;0.65;;;-5.00;99.90;;;;;;4978632;28;20223;-82
2024/01/20 03:48:23;;;;;;;1.23;1.23;;;-4.90;99.90;;;;;;4983296;28;20399;-84
2024/01/20 03:50:52;;;;;;;2.15;1.73;;;-4.90;99.90;;;;;;4957500;29;20238;-83
2024/01/20 03:53:23;;;;;;;2.67;2.15;;;-4.90;99.90;;;;;;4981903;28;20219;-82
2024/01/20 03:55:51;;;;;;;1.25;1.17;;;-4.80;99.90;;;;;;4979059;28;20506;-84
2024/01/20 03:58:19;;;;;;;1.38;1.27;;;-4.80;99.90;;;;;;4948488;28;20636;-82
2024/01/20 04:00:46;;;;;;;1.75;1.65;;;-4.70;99.90;;;;;;4978260;28;20250;-80
2024/01/20 04:03:13;;;;;;;0.93;0.93;;;-4.80;99.90;;;;;;4971836;28;20203;-82
2024/01/20 04:05:40;;;;;;;4.60;1.88;;;-4.70;99.90;;;;;;4972780;28;20294;-81
2024/01/20 04:08:07;;;;;;;2.33;2.20;;;-4.60;99.90;;;;;;4952915;28;20207;-82
2024/01/20 04:10:35;;;;;;;1.40;1.40;;;-4.80;99.90;;;;;;4984686;28;20518;-81
2024/01/20 04:13:03;;;;;;;1.30;1.20;;;-4.80;99.90;;;;;;4980098;28;20511;-82
2024/01/20 04:15:30;;;;;;;2.38;2.22;;;-4.80;99.90;;;;;;4971707;28;20754;-82
2024/01/20 04:17:57;;;;;;;5.90;2.38;;;-4.80;99.90;;;;;;4978182;28;20191;-85
2024/01/20 04:20:24;;;;;;;0.70;0.70;;;-4.80;99.90;;;;;;4973917;28;20250;-85
2024/01/20 04:22:52;;;;;;;7.63;2.67;;;-5.00;99.90;;;;;;4985852;28;20188;-83
2024/01/20 04:25:19;;;;;;;1.25;1.15;;;-5.10;99.90;;;;;;4973579;28;20227;-82
2024/01/20 04:27:46;;;;;;;1.38;1.38;;;-5.10;99.90;;;;;;4964736;28;20213;-81
2024/01/20 04:30:13;;;;;;;1.08;1.08;;;-5.00;99.90;;;;;;4974848;28;20226;-83
2024/01/20 04:32:40;;;;;;;3.25;2.50;;;-5.10;99.90;;;;;;4986644;28;20207;-81
2024/01/20 04:35:09;;;;;;;0.60;0.60;;;-5.10;99.90;;;;;;4995343;28;20210;-81
2024/01/20 04:37:39;;;;;;;2.75;2.35;;;-5.10;99.90;;;;;;4962423;29;20219;-81
2024/01/20 04:40:07;;;;;;;1.92;1.83;;;-5.10;99.90;;;;;;4982575;28;20238;-81
2024/01/20 04:42:34;;;;;;;1.30;1.13;;;-4.90;99.90;;;;;;4963058;28;20210;-81
2024/01/20 04:45:04;;;;;;;2.28;1.70;;;-4.90;99.90;;;;;;4974966;28;20790;-85
2024/01/20 04:47:32;;;;;;;0.40;0.40;;;-5.00;99.90;;;;;;4981396;28;20215;-82
2024/01/20 04:49:59;;;;;;;15.50;2.97;;;-5.10;99.90;;;;;;4980057;28;20211;-85
2024/01/20 04:52:27;;;;;;;1.67;1.58;;;-5.10;99.90;;;;;;4968199;28;20237;-87
2024/01/20 04:54:54;;;;;;;0.55;0.55;;;-5.10;99.90;;;;;;4967504;28;20218;-86
2024/01/20 04:57:22;;;;;;;0.80;0.80;;;-5.10;99.90;;;;;;4981860;28;20218;-84
2024/01/20 04:59:50;;;;;;;2.15;2.05;;;-5.00;99.90;;;;;;4981352;28;20522;-82
2024/01/20 05:02:18;;;;;;;0.90;0.90;;;-4.90;99.90;;;;;;4982745;28;20222;-84
2024/01/20 05:04:59;;;;;;;2.50;2.30;;;-4.70;99.90;;;;;;4976005;28;20238;-85
2024/01/20 05:07:34;;;;;;;1.95;1.27;;;-4.70;99.90;;;;;;4979331;28;20218;-85
2024/01/20 05:10:01;;;;;;;1.23;1.13;;;-4.60;99.90;;;;;;4953491;29;20199;-83
2024/01/20 05:12:28;;;;;;;3.35;1.05;;;-4.50;99.90;;;;;;4978391;28;20211;-86
2024/01/20 05:14:57;;;;;;;5.63;1.65;;;-4.40;99.90;;;;;;4983574;28;20207;-83
2024/01/20 05:17:25;;;;;;;1.42;1.33;;;-4.30;99.90;;;;;;4974448;28;20207;-85
2024/01/20 05:19:52;;;;;;;1.92;1.55;;;-4.10;99.90;;;;;;4978625;28;20263;-84
2024/01/20 05:22:19;;;;;;;2.75;2.55;;;-4.00;99.90;;;;;;4980331;28;20207;-85
2024/01/20 05:24:48;;;;;;;2.65;1.33;;;-3.80;99.90;;;;;;4981294;28;20237;-84
2024/01/20 05:27:15;;;;;;;2.67;2.47;;;-3.80;99.90;;;;;;4966447;28;20436;-85
2024/01/20 05:29:42;;;;;;;1.50;1.40;;;-3.80;99.90;;;;;;4981285;28;20210;-85
2024/01/20 05:32:11;;;;;;;1.90;1.80;;;-3.70;99.90;;;;;;4980665;28;20199;-81
2024/01/20 05:34:38;;;;;;;1.60;1.50;;;-3.80;99.90;;;;;;4972293;28;20278;-82
2024/01/20 05:37:05;;;;;;;2.58;2.22;;;-3.80;99.90;;;;;;4978719;28;20507;-80
2024/01/20 05:39:34;;;;;;;0.70;0.70;;;-3.80;99.90;;;;;;4976365;28;20276;-83
2024/01/20 05:42:02;;;;;;;1.60;1.40;;;-3.80;99.90;;;;;;4972183;28;20604;-82
2024/01/20 05:44:30;;;;;;;1.65;1.55;;;-3.90;99.90;;;;;;4967407;28;20242;-82
2024/01/20 05:46:57;;;;;;;1.40;1.40;;;-4.00;99.90;;;;;;4970067;28;20208;-81
2024/01/20 05:49:24;;;;;;;2.25;2.15;;;-4.10;99.90;;;;;;4980646;28;20301;-82
2024/01/20 05:51:51;;;;;;;0.77;0.77;;;-4.30;99.90;;;;;;4971758;28;20209;-81
2024/01/20 05:54:18;;;;;;;2.38;2.28;;;-4.50;99.90;;;;;;4979447;28;20238;-81
2024/01/20 05:56:45;;;;;;;0.80;0.80;;;-4.40;99.90;;;;;;4979641;28;20218;-82
2024/01/20 05:59:13;;;;;;;1.38;1.33;;;-4.20;99.90;;;;;;4980293;28;20402;-81
2024/01/20 06:01:41;;;;;;;4.78;1.23;;;-3.90;99.90;;;;;;4974451;28;20496;-85
2024/01/20 06:04:10;;;;;;;1.83;1.73;;;-3.90;99.90;;;;;;4977365;28;20207;-84
2024/01/20 06:06:37;;;;;;;0.63;0.63;;;-3.80;99.90;;;;;;4953763;28;20404;-83
2024/01/20 06:09:05;;;;;;;0.60;0.60;;;-3.80;99.90;;;;;;4977200;28;20433;-84
2024/01/20 06:11:34;;;;;;;0.80;0.80;;;-4.00;99.90;;;;;;4947015;28;20219;-83
2024/01/20 06:14:04;;;;;;;0.85;0.85;;;-4.10;99.90;;;;;;4959531;28;20208;-82
2024/01/20 06:16:38;;;;;;;6.57;2.78;;;-4.30;99.90;;;;;;4957761;28;20225;-85
2024/01/20 06:19:06;;;;;;;2.53;2.35;;;-4.30;99.90;;;;;;4959913;28;20467;-84
2024/01/20 06:21:33;;;;;;;1.45;1.20;;;-4.40;99.90;;;;;;4963904;28;20981;-83
2024/01/20 06:24:00;;;;;;;0.50;0.50;;;-4.60;99.90;;;;;;4978824;28;20298;-83
2024/01/20 06:26:28;;;;;;;0.60;0.60;;;-4.70;99.90;;;;;;4979805;28;20269;-84
2024/01/20 06:28:55;;;;;;;1.75;1.65;;;-4.60;99.90;;;;;;4968910;28;20253;-83
2024/01/20 06:31:26;;;;;;;1.65;1.55;;;-4.70;99.90;;;;;;4981719;28;20214;-83
2024/01/20 06:33:55;;;;;;;2.35;2.15;;;-4.80;99.90;;;;;;4971274;28;20274;-83
2024/01/20 06:36:26;;;;;;;1.67;1.60;;;-4.80;99.90;;;;;;4974332;28;20230;-78
2024/01/20 06:38:54;;;;;;;1.15;1.15;;;-4.70;99.90;;;;;;4980860;28;20270;-82
2024/01/20 06:41:22;;;;;;;15.40;2.40;;;-4.70;99.90;;;;;;4968250;28;20654;-82
2024/01/20 06:43:48;;;;;;;2.30;1.52;;;-4.70;99.90;;;;;;4966874;28;20215;-84
2024/01/20 06:46:15;;;;;;;1.17;1.17;;;-4.70;99.90;;;;;;4962572;28;20226;-81
2024/01/20 06:48:42;;;;;;;1.52;1.50;;;-4.70;99.90;;;;;;4977801;28;20353;-81
2024/01/20 06:51:14;;;;;;;1.90;1.80;;;-4.70;99.90;;;;;;4987963;28;20210;-82
2024/01/20 06:53:43;;;;;;;0.70;0.70;;;-4.80;99.90;;;;;;4990295;28;20240;-82
2024/01/20 06:56:11;;;;;;;2.05;1.52;;;-4.70;99.90;;;;;;4981124;28;20364;-84
2024/01/20 06:58:39;;;;;;;2.63;1.50;;;-4.70;99.90;;;;;;4992677;28;20213;-83
2024/01/20 07:01:06;;;;;;;1.50;1.35;;;-4.70;99.90;;;;;;4986058;28;20314;-83
2024/01/20 07:03:33;;;;;;;1.20;1.20;;;-4.60;99.90;;;;;;5001712;28;20187;-80
2024/01/20 07:06:00;;;;;;;2.30;1.70;;;-4.40;99.90;;;;;;4994140;28;20291;-81
2024/01/20 07:08:30;;;;;;;1.33;1.08;;;-4.20;99.90;;;;;;4981668;28;20216;-81
2024/01/20 07:10:56;;;;;;;1.63;1.60;;;-4.20;99.90;;;;;;4983849;28;20546;-84
2024/01/20 07:13:23;;;;;;;9.98;3.08;;;-4.20;99.90;;;;;;4972663;28;20319;-82
2024/01/20 07:15:51;;;;;;;0.85;0.85;;;-4.20;99.90;;;;;;4982851;28;20239;-82
2024/01/20 07:18:17;;;;;;;0.80;0.80;;;-4.30;99.90;;;;;;4969873;28;20215;-83
2024/01/20 07:20:48;;;;;;;2.05;1.52;;;-4.20;99.90;;;;;;4967023;28;20499;-83
2024/01/20 07:23:16;;;;;;;5.30;1.77;;;-4.00;99.90;;;;;;4983205;28;20243;-84
2024/01/20 07:25:44;;;;;;;1.60;1.60;;;-3.90;99.90;;;;;;4962553;28;20231;-80
2024/01/20 07:28:11;;;;;;;2.25;2.05;;;-3.70;99.90;;;;;;4978479;28;20215;-82
2024/01/20 07:30:39;;;;;;;1.48;1.40;;;-3.90;99.90;;;;;;4975003;28;20282;-83
2024/01/20 07:33:10;;;;;;;1.60;1.50;;;-3.90;99.90;;;;;;4976744;28;20274;-82
2024/01/20 07:35:37;;;;;;;0.70;0.70;;;-3.90;99.90;;;;;;4982045;28;20203;-82
2024/01/20 07:38:04;;;;;;;2.20;2.00;;;-3.80;99.90;;;;;;4960036;29;20219;-83
2024/01/20 07:40:32;;;;;;;1.33;1.33;;;-3.80;99.90;;;;;;4964939;28;20214;-81
2024/01/20 07:42:59;;;;;;;2.65;2.45;;;-3.80;99.90;;;;;;4981952;28;20242;-82
2024/01/20 07:45:30;;;;;;;0.70;0.70;;;-3.80;99.90;;;;;;4981234;28;20316;-80
2024/01/20 07:48:01;;;;;;;2.35;1.88;;;-3.70;99.90;;;;;;4970061;28;20590;-82
2024/01/20 07:50:29;;;;;;;1.02;1.02;;;-3.60;99.90;;;;;;4977674;28;20242;-82
2024/01/20 07:52:56;;;;;;;1.80;1.55;;;-1.80;99.90;;;;;;4978920;28;20235;-83
2024/01/20 07:55:24;;;;;;;1.65;1.55;;;1.00;99.90;;;;;;4977173;28;20266;-81
2024/01/20 07:57:51;;;;;;;0.90;0.90;;;2.80;99.90;;;;;;4978827;28;20199;-81
2024/01/20 08:00:18;;;;;;;1.25;1.25;;;2.50;99.90;;;;;;4976769;28;20219;-80
2024/01/20 08:02:45;;;;;;;0.90;0.90;;;2.40;99.90;;;;;;4975198;28;20199;-79
2024/01/20 08:05:12;;;;;;;0.80;0.80;;;2.30;99.90;;;;;;4974149;28;20219;-80
2024/01/20 08:07:39;;;;;;;2.35;2.15;;;-0.60;99.90;;;;;;4975263;28;20271;-81
2024/01/20 08:10:06;;;;;;;1.45;1.40;;;-1.70;99.90;;;;;;4970902;28;20212;-78
2024/01/20 08:12:34;;;;;;;0.80;0.80;;;-2.10;99.90;;;;;;4978510;28;20353;-81
2024/01/20 08:15:02;;;;;;;2.53;2.33;;;-2.30;99.90;;;;;;4981135;28;20211;-81
2024/01/20 08:17:29;;;;;;;0.60;0.60;;;-2.30;99.90;;;;;;4977192;28;20212;-83
2024/01/20 08:19:56;;;;;;;2.92;2.72;;;-2.30;99.90;;;;;;4956562;28;20210;-81
2024/01/20 08:22:23;;;;;;;2.25;2.15;;;-2.40;99.90;;;;;;4980265;28;20273;-80
2024/01/20 08:24:50;;;;;;;0.93;0.93;;;-2.40;99.90;;;;;;4977511;28;20234;-81
2024/01/20 08:27:18;;;;;;;3.60;1.65;;;-2.40;99.90;;;;;;4984684;28;20238;-82
2024/01/20 08:29:44;;;;;;;5.00;1.35;;;-2.20;99.90;;;;;;4981894;28;20212;-84
2024/01/20 08:32:12;;;;;;;1.13;1.02;;;-2.20;99.90;;;;;;4968423;28;20519;-85
2024/01/20 08:34:38;;;;;;;0.63;0.63;;;-2.10;99.90;;;;;;4985773;28;20218;-83
2024/01/20 08:37:06;;;;;;;0.77;0.77;;;-2.00;99.90;;;;;;4985325;28;20211;-80
2024/01/20 08:39:32;;;;;;;0.98;0.98;;;-2.00;99.90;;;;;;4976294;28;20206;-83
2024/01/20 08:41:59;;;;;;;2.15;2.05;;;-2.00;99.90;;;;;;4978329;28;20210;-84
2024/01/20 08:44:26;;;;;;;0.88;0.88;;;-1.90;99.90;;;;;;4984077;28;20206;-81
2024/01/20 08:46:54;;;;;;;1.48;1.48;;;-1.70;99.90;;;;;;4977490;28;20226;-80
2024/01/20 08:49:22;;;;;;;2.35;2.25;;;-1.60;99.90;;;;;;4983261;28;20210;-80
2024/01/20 08:51:49;;;;;;;1.10;1.10;;;-1.50;99.90;;;;;;4976435;28;20235;-80
2024/01/20 08:54:17;;;;;;;2.80;2.63;;;-1.50;99.90;;;;;;4977916;28;20772;-79
2024/01/20 08:56:45;;;;;;;1.63;1.20;;;0.10;99.90;;;;;;4982672;28;20624;-79
2024/01/20 08:59:12;;;;;;;0.90;0.90;;;2.20;99.90;;;;;;4964410;28;20207;-80
2024/01/20 09:01:39;;;;;;;3.22;2.05;;;2.70;99.90;;;;;;4986034;28;20258;-81
2024/01/20 09:04:06;;;;;;;2.10;2.00;;;3.90;99.90;;;;;;4993892;28;20207;-80
2024/01/20 09:06:33;;;;;;;4.00;2.10;;;4.00;99.90;;;;;;4988477;28;20251;-82
2024/01/20 09:09:00;;;;;;;1.15;1.15;;;3.70;99.90;;;;;;4984214;28;20221;-80
2024/01/20 09:11:28;;;;;;;1.45;1.38;;;3.00;99.90;;;;;;4983701;28;20202;-81
2024/01/20 09:13:55;;;;;;;2.25;2.15;;;1.20;99.90;;;;;;4983896;28;20245;-79
2024/01/20 09:16:22;;;;;;;1.70;1.60;;;0.00;99.90;;;;;;4965149;28;20218;-78
2024/01/20 09:18:49;;;;;;;1.10;1.10;;;-0.20;99.90;;;;;;4982030;28;20213;-80
2024/01/20 09:21:16;;;;;;;1.75;1.65;;;-0.20;99.90;;;;;;4980578;28;20514;-78
2024/01/20 09:23:43;;;;;;;0.90;0.90;;;-0.60;99.90;;;;;;4979200;28;20202;-78
2024/01/20 09:26:10;;;;;;;6.05;3.13;;;-0.80;99.90;;;;;;4979764;28;20292;-79
2024/01/20 09:28:37;;;;;;;1.42;1.42;;;-1.00;99.90;;;;;;4967336;28;20235;-78
2024/01/20 09:31:04;;;;;;;3.05;2.35;;;-0.90;99.90;;;;;;4979412;28;20231;-79
2024/01/20 09:33:31;;;;;;;1.27;1.27;;;-0.80;99.90;;;;;;4971487;28;20424;-79
2024/01/20 09:35:58;;;;;;;4.55;3.20;;;-0.80;99.90;;;;;;4972154;28;20262;-79
2024/01/20 09:38:28;;;;;;;1.42;1.40;;;-0.80;99.90;;;;;;4971603;28;20211;-78
2024/01/20 09:40:58;;;;;;;1.25;1.25;;;-0.60;99.90;;;;;;4976431;28;20294;-79
2024/01/20 09:43:26;;;;;;;0.60;0.60;;;-0.50;99.90;;;;;;4980031;28;20210;-77
2024/01/20 09:45:53;;;;;;;1.13;1.13;;;-0.50;99.90;;;;;;4978938;28;20241;-81
2024/01/20 09:48:20;;;;;;;1.08;1.08;;;-0.40;99.90;;;;;;4978053;28;20262;-77
2024/01/20 09:50:49;;;;;;;0.75;0.75;;;-0.40;99.90;;;;;;4961682;28;20207;-83
2024/01/20 09:53:17;;;;;;;1.55;1.45;;;-0.20;99.90;;;;;;4978850;28;20209;-79
2024/01/20 09:55:45;;;;;;;19.42;2.85;;;-0.30;99.90;;;;;;4965719;28;20218;-80
2024/01/20 09:58:16;;;;;;;0.90;0.90;;;-0.40;99.90;;;;;;4979872;28;20204;-78
2024/01/20 10:00:43;;;;;;;2.78;1.80;;;-0.30;99.90;;;;;;4962383;28;20207;-79
2024/01/20 10:03:12;;;;;;;1.00;1.00;;;-0.30;99.90;;;;;;4960233;28;20211;-80
2024/01/20 10:05:39;;;;;;;0.90;0.90;;;-0.20;99.90;;;;;;4962485;28;20431;-79
2024/01/20 10:08:07;;;;;;;0.93;0.93;;;-0.20;99.90;;;;;;4976884;28;20384;-79
2024/01/20 10:10:34;;;;;;;2.95;2.70;;;-0.20;99.90;;;;;;4963557;28;20207;-83
2024/01/20 10:13:02;;;;;;;1.02;1.02;;;-0.20;99.90;;;;;;4976446;28;20230;-81
2024/01/20 10:15:30;;;;;;;2.55;1.35;;;-0.10;99.90;;;;;;4980792;28;20250;-80
2024/01/20 10:18:08;;;;;;;0.95;0.95;;;-0.10;99.90;;;;;;4979169;28;20210;-80
2024/01/20 10:20:36;;;;;;;1.58;1.52;;;0.00;99.90;;;;;;4978546;28;20221;-79
2024/01/20 10:23:05;;;;;;;1.30;1.20;;;-0.10;99.90;;;;;;4973568;28;20214;-80
2024/01/20 10:25:33;;;;;;;0.70;0.70;;;-0.10;99.90;;;;;;4961362;28;20364;-79
2024/01/20 10:28:00;;;;;;;1.08;1.08;;;0.00;99.90;;;;;;4978879;28;20274;-83
2024/01/20 10:30:28;;;;;;;0.55;0.55;;;0.10;99.90;;;;;;4976857;28;20495;-82
2024/01/20 10:32:58;;;;;;;0.95;0.95;;;0.00;99.90;;;;;;4977305;28;20480;-82
2024/01/20 10:35:36;;;;;;;0.70;0.70;;;0.00;99.90;;;;;;4974659;28;20236;-82
2024/01/20 10:38:17;;;;;;;0.75;0.75;;;0.10;99.90;;;;;;4976909;28;20211;-82
2024/01/20 10:40:49;;;;;;;1.30;0.90;;;0.10;99.90;;;;;;4976077;28;20213;-83
2024/01/20 10:43:16;;;;;;;0.68;0.68;;;0.20;99.90;;;;;;4978088;28;20262;-83
2024/01/20 10:46:01;;;;;;;0.50;0.50;;;0.20;99.90;;;;;;4973211;28;20226;-80
2024/01/20 10:48:33;;;;;;;1.67;0.98;;;0.20;99.90;;;;;;4981471;28;20207;-80
2024/01/20 10:51:08;;;;;;;1.25;1.20;;;0.10;99.90;;;;;;4976082;28;20237;-82
2024/01/20 10:53:36;;;;;;;0.57;0.57;;;0.30;99.90;;;;;;4977477;28;20257;-83
2024/01/20 10:56:06;;;;;;;1.02;1.02;;;0.30;99.90;;;;;;4985439;28;20214;-82
2024/01/20 10:58:42;;;;;;;3.42;3.15;;;0.30;99.90;;;;;;4981438;28;20241;-81
2024/01/20 11:01:11;;;;;;;4.45;3.08;;;0.30;99.90;;;;;;4980532;28;20209;-82
2024/01/20 11:03:41;;;;;;;0.50;0.50;;;0.30;99.90;;;;;;4965657;28;20257;-83
2024/01/20 11:06:19;;;;;;;1.85;1.75;;;0.30;99.90;;;;;;4992410;28;20286;-83
2024/01/20 11:08:52;;;;;;;0.50;0.50;;;0.40;99.90;;;;;;4975682;28;20439;-83
2024/01/20 11:11:20;;;;;;;2.35;2.25;;;0.50;99.90;;;;;;4976465;28;20211;-82
2024/01/20 11:13:48;;;;;;;0.90;0.90;;;0.30;99.90;;;;;;4963157;28;20542;-82
2024/01/20 11:16:21;;;;;;;1.40;1.40;;;0.40;99.90;;;;;;4972594;28;20697;-81
2024/01/20 11:18:48;;;;;;;1.20;1.13;;;0.40;99.90;;;;;;4978839;28;20255;-81
2024/01/20 11:21:19;;;;;;;1.15;1.15;;;0.60;99.90;;;;;;4980524;28;20215;-83
2024/01/20 11:23:59;;;;;;;1.98;1.88;;;0.40;99.90;;;;;;4975611;28;20199;-82
2024/01/20 11:26:34;;;;;;;0.65;0.65;;;0.50;99.90;;;;;;4973268;28;20319;-83
2024/01/20 11:29:03;;;;;;;1.48;1.17;;;0.50;99.90;;;;;;4972794;28;20220;-83
2024/01/20 11:31:31;;;;;;;0.45;0.45;;;0.50;99.90;;;;;;4991915;28;20218;-82
2024/01/20 11:34:00;;;;;;;0.70;0.70;;;0.60;99.90;;;;;;4965542;28;20265;-81
2024/01/20 11:36:31;;;;;;;1.08;1.08;;;0.50;99.90;;;;;;4991719;28;20207;-82
2024/01/20 11:39:00;;;;;;;1.65;1.55;;;0.50;99.90;;;;;;4983667;28;20274;-81
2024/01/20 11:41:27;;;;;;;1.35;1.35;;;0.50;99.90;;;;;;4984592;28;20214;-83
2024/01/20 11:43:54;;;;;;;1.15;0.85;;;0.60;99.90;;;;;;4992755;28;20210;-82
2024/01/20 11:46:23;;;;;;;0.68;0.68;;;0.50;99.90;;;;;;4976301;28;20298;-83
2024/01/20 11:48:51;;;;;;;0.70;0.70;;;0.70;99.90;;;;;;4975608;28;20399;-81
2024/01/20 11:51:20;;;;;;;0.50;0.50;;;0.70;99.90;;;;;;4959104;28;20462;-79
2024/01/20 11:53:48;;;;;;;1.98;1.88;;;0.60;99.90;;;;;;4987973;28;20505;-82
2024/01/20 11:56:16;;;;;;;0.50;0.50;;;0.70;99.90;;;;;;4979956;28;20294;-83
2024/01/20 11:58:46;;;;;;;0.50;0.50;;;0.80;99.90;;;;;;4979003;28;20207;-81
2024/01/20 12:01:15;;;;;;;1.08;1.08;;;0.80;99.90;;;;;;4945400;28;20517;-81
2024/01/20 12:03:43;;;;;;;1.13;1.13;;;0.80;99.90;;;;;;4965530;28;20211;-82
2024/01/20 12:06:14;;;;;;;0.90;0.90;;;0.90;99.90;;;;;;4981555;28;20206;-82
2024/01/20 12:08:44;;;;;;;0.60;0.60;;;0.80;99.90;;;;;;4960693;29;20239;-79
2024/01/20 12:11:21;;;;;;;1.05;1.05;;;0.80;99.90;;;;;;4982277;28;20491;-79
2024/01/20 12:13:49;;;;;;;2.05;1.95;;;0.90;99.90;;;;;;4960433;28;20218;-81
2024/01/20 12:16:17;;;;;;;0.50;0.50;;;0.80;99.90;;;;;;4956157;28;20218;-81
2024/01/20 12:18:44;;;;;;;1.90;1.80;;;1.00;99.90;;;;;;4981829;28;20202;-79
2024/01/20 12:21:11;;;;;;;0.60;0.60;;;1.00;99.90;;;;;;4972804;28;20247;-80
2024/01/20 12:23:39;;;;;;;6.15;1.27;;;1.00;99.90;;;;;;4981482;28;20214;-81
2024/01/20 12:26:16;;;;;;;2.53;1.52;;;1.00;99.90;;;;;;4981167;28;20207;-81
2024/01/20 12:28:46;;;;;;;1.85;1.75;;;1.00;99.90;;;;;;4973303;28;20265;-81
2024/01/20 12:31:15;;;;;;;0.77;0.77;;;1.00;99.90;;;;;;4975354;28;20215;-83
2024/01/20 12:33:46;;;;;;;1.10;1.10;;;1.10;99.90;;;;;;4980008;28;20214;-83
2024/01/20 12:36:13;;;;;;;0.50;0.50;;;1.10;99.90;;;;;;4980142;28;20205;-84
2024/01/20 12:38:40;;;;;;;1.67;1.33;;;1.00;99.90;;;;;;4981338;28;20206;-81
2024/01/20 12:41:06;;;;;;;1.27;1.27;;;1.10;99.90;;;;;;4974023;28;20206;-80
2024/01/20 12:43:36;;;;;;;0.65;0.65;;;1.10;99.90;;;;;;4980216;28;20211;-82
2024/01/20 12:46:03;;;;;;;1.50;1.48;;;0.90;99.90;;;;;;4982214;28;20217;-80
2024/01/20 12:48:29;;;;;;;1.33;1.30;;;0.90;99.90;;;;;;4978136;28;20263;-83
2024/01/20 12:50:57;;;;;;;0.43;0.43;;;0.90;99.90;;;;;;4980831;28;20281;-82
2024/01/20 12:53:24;;;;;;;1.95;1.67;;;1.00;99.90;;;;;;4965974;28;20282;-82